createdAt,value
2022-09-12T00:04:16.645Z,100.00
2022-09-12T00:09:18.273Z,100.00
2022-09-12T00:14:19.940Z,100.00
2022-09-12T00:19:21.575Z,100.00
2022-09-12T00:24:23.409Z,100.00
2022-09-12T00:29:25.056Z,100.00
2022-09-12T00:34:26.718Z,100.00
2022-09-12T00:39:28.369Z,100.00
2022-09-12T00:44:29.820Z,100.00
2022-09-12T00:49:52.374Z,100.00
2022-09-12T00:55:10.627Z,100.00
2022-09-12T01:00:15.479Z,100.00
2022-09-12T01:05:17.271Z,100.00
2022-09-12T01:10:19.009Z,100.00
2022-09-12T01:15:20.640Z,100.00
2022-09-12T01:20:38.199Z,100.00
2022-09-12T01:26:17.382Z,100.00
2022-09-12T01:31:54.233Z,100.00
2022-09-12T01:37:10.770Z,100.00
2022-09-12T01:42:20.724Z,100.00
2022-09-12T01:47:27.004Z,100.00
2022-09-12T01:52:39.489Z,100.00
2022-09-12T01:57:45.579Z,100.00
2022-09-12T02:02:51.884Z,100.00
2022-09-12T02:07:56.969Z,100.00
2022-09-12T02:13:11.517Z,100.00
2022-09-12T02:18:14.519Z,100.00
2022-09-12T02:23:27.890Z,100.00
2022-09-12T02:28:35.185Z,100.00
2022-09-12T02:33:44.470Z,100.00
2022-09-12T02:38:46.826Z,100.00
2022-09-12T02:43:48.857Z,100.00
2022-09-12T02:48:50.568Z,100.00
2022-09-12T02:53:52.221Z,100.00
2022-09-12T02:58:54.238Z,100.00
2022-09-12T03:04:05.856Z,100.00
2022-09-12T03:09:20.220Z,100.00
2022-09-12T03:14:49.573Z,100.00
2022-09-12T03:19:54.128Z,100.00
2022-09-12T03:25:19.178Z,100.00
2022-09-12T03:30:23.201Z,100.00
2022-09-12T03:35:24.935Z,100.00
2022-09-12T03:40:26.571Z,100.00
2022-09-12T03:45:28.237Z,100.00
2022-09-12T03:50:29.938Z,100.00
2022-09-12T03:55:31.548Z,100.00
2022-09-12T04:00:33.299Z,100.00
2022-09-12T04:05:35.497Z,100.00
2022-09-12T04:10:37.109Z,100.00
2022-09-12T04:15:38.867Z,100.00
2022-09-12T04:20:40.471Z,100.00
2022-09-12T04:25:42.736Z,100.00
2022-09-12T04:30:44.407Z,100.00
2022-09-12T04:35:46.038Z,100.00
2022-09-12T04:40:47.721Z,100.00
2022-09-12T04:45:49.377Z,100.00
2022-09-12T04:50:51.005Z,100.00
2022-09-12T04:55:52.615Z,100.00
2022-09-12T05:00:54.295Z,100.00
2022-09-12T05:05:56.625Z,100.00
2022-09-12T05:11:03.606Z,100.00
2022-09-12T05:16:05.719Z,100.00
2022-09-12T05:21:08.179Z,100.00
2022-09-12T05:26:12.439Z,100.00
2022-09-12T05:31:19.024Z,100.00
2022-09-12T05:36:29.961Z,100.00
2022-09-12T05:41:32.911Z,100.00
2022-09-12T05:46:39.103Z,100.00
2022-09-12T05:51:45.104Z,100.00
2022-09-12T05:56:46.917Z,100.00
2022-09-12T06:01:48.664Z,100.00
2022-09-12T06:06:51.819Z,100.00
2022-09-12T06:11:53.552Z,100.00
2022-09-12T06:16:55.412Z,100.00
2022-09-12T06:21:57.123Z,100.00
2022-09-12T06:26:58.727Z,100.00
2022-09-12T06:32:00.468Z,100.00
2022-09-12T06:37:03.969Z,100.00
2022-09-12T06:42:05.714Z,100.00
2022-09-12T06:47:12.298Z,100.00
2022-09-12T06:52:13.949Z,100.00
2022-09-12T06:57:15.556Z,100.00
2022-09-12T07:02:17.185Z,100.00
2022-09-12T07:07:18.825Z,100.00
2022-09-12T07:12:20.471Z,100.00
2022-09-12T07:17:22.084Z,100.00
2022-09-12T07:22:23.696Z,100.00
2022-09-12T07:27:25.535Z,100.00
2022-09-12T07:32:27.475Z,100.00
2022-09-12T07:37:32.267Z,100.00
2022-09-12T07:42:33.919Z,100.00
2022-09-12T07:47:35.542Z,100.00
2022-09-12T07:52:37.185Z,100.00
2022-09-12T07:57:38.837Z,100.00
2022-09-12T08:02:41.167Z,100.00
2022-09-12T08:07:42.811Z,100.00
2022-09-12T08:12:44.430Z,100.00
2022-09-12T08:17:46.059Z,100.00
2022-09-12T08:22:47.797Z,100.00
2022-09-12T08:27:49.496Z,100.00
2022-09-12T08:32:51.273Z,100.00
2022-09-12T08:37:52.935Z,100.00
2022-09-12T08:43:03.051Z,100.00
2022-09-12T08:48:04.914Z,100.00
2022-09-12T08:53:18.057Z,99.93
2022-09-12T08:58:23.550Z,99.82
2022-09-12T09:04:16.053Z,98.95
2022-09-12T09:09:36.545Z,95.26
2022-09-12T09:15:05.201Z,96.30
2022-09-12T09:20:30.105Z,95.02
2022-09-12T09:25:50.742Z,90.57
2022-09-12T09:30:52.556Z,90.42
2022-09-12T09:36:11.470Z,88.44
2022-09-12T09:41:17.774Z,86.10
2022-09-12T09:46:19.457Z,86.17
2022-09-12T09:51:26.038Z,86.79
2022-09-12T09:56:35.526Z,86.75
2022-09-12T10:01:38.836Z,86.06
2022-09-12T10:06:40.759Z,82.69
2022-09-12T10:11:45.781Z,81.64
2022-09-12T10:16:49.717Z,80.63
2022-09-12T10:21:52.137Z,81.31
2022-09-12T10:26:56.937Z,76.79
2022-09-12T10:32:04.583Z,74.92
2022-09-12T10:37:07.812Z,72.81
2022-09-12T10:42:14.043Z,69.07
2022-09-12T10:47:20.640Z,70.45
2022-09-12T10:52:23.523Z,71.30
2022-09-12T10:58:06.745Z,72.05
2022-09-12T11:03:28.292Z,71.32
2022-09-12T11:08:52.081Z,69.64
2022-09-12T11:14:25.064Z,68.20
2022-09-12T11:19:35.546Z,67.76
2022-09-12T11:25:01.966Z,64.22
2022-09-12T11:30:13.791Z,63.74
2022-09-12T11:35:17.421Z,65.77
2022-09-12T11:40:20.416Z,64.29
2022-09-12T11:45:51.319Z,62.49
2022-09-12T11:50:52.965Z,64.22
2022-09-12T11:56:10.394Z,63.53
2022-09-12T12:01:20.981Z,63.64
2022-09-12T12:06:33.855Z,61.28
2022-09-12T12:11:41.391Z,55.53
2022-09-12T12:16:43.140Z,54.21
2022-09-12T12:21:47.858Z,52.93
2022-09-12T12:27:07.865Z,51.93
2022-09-12T12:32:09.308Z,49.24
2022-09-12T12:37:22.971Z,52.73
2022-09-12T12:42:36.706Z,51.65
2022-09-12T12:47:38.146Z,51.05
2022-09-12T12:52:49.179Z,51.35
2022-09-12T12:57:51.500Z,51.68
2022-09-12T13:03:06.094Z,52.76
2022-09-12T13:08:10.787Z,51.52
2022-09-12T13:13:23.715Z,52.10
2022-09-12T13:18:46.232Z,53.48
2022-09-12T13:24:13.918Z,54.32
2022-09-12T13:29:19.678Z,50.34
2022-09-12T13:34:26.141Z,49.73
2022-09-12T13:39:28.936Z,48.98
2022-09-12T13:44:31.039Z,47.75
2022-09-12T13:49:35.191Z,48.49
2022-09-12T13:54:37.909Z,47.49
2022-09-12T13:59:40.136Z,48.95
2022-09-12T14:05:00.491Z,47.12
2022-09-12T14:10:03.346Z,46.11
2022-09-12T14:15:05.509Z,46.04
2022-09-12T14:20:09.247Z,44.78
2022-09-12T14:25:15.096Z,43.35
2022-09-12T14:30:32.784Z,42.08
2022-09-12T14:35:34.399Z,44.11
2022-09-12T14:40:50.487Z,41.30
2022-09-12T14:46:00.247Z,41.46
2022-09-12T14:51:02.290Z,41.32
2022-09-12T14:56:09.146Z,41.39
2022-09-12T15:01:10.650Z,40.96
2022-09-12T15:06:32.396Z,42.66
2022-09-12T15:11:34.041Z,41.91
2022-09-12T15:16:35.648Z,41.90
2022-09-12T15:21:37.258Z,44.07
2022-09-12T15:26:39.053Z,44.65
2022-09-12T15:31:40.646Z,45.70
2022-09-12T15:36:42.249Z,42.88
2022-09-12T15:41:43.876Z,45.21
2022-09-12T15:46:45.710Z,44.45
2022-09-12T15:51:47.429Z,44.97
2022-09-12T15:56:49.608Z,46.86
2022-09-12T16:01:51.578Z,48.61
2022-09-12T16:06:54.574Z,48.93
2022-09-12T16:11:56.202Z,48.66
2022-09-12T16:16:58.298Z,48.57
2022-09-12T16:21:59.900Z,49.53
2022-09-12T16:27:01.622Z,49.41
2022-09-12T16:32:03.444Z,49.97
2022-09-12T16:37:05.585Z,49.84
2022-09-12T16:42:07.232Z,50.79
2022-09-12T16:47:09.001Z,51.45
2022-09-12T16:52:10.846Z,51.88
2022-09-12T16:57:12.492Z,52.74
2022-09-12T17:02:14.306Z,52.39
2022-09-12T17:07:15.963Z,52.92
2022-09-12T17:12:17.583Z,53.84
2022-09-12T17:17:19.222Z,54.70
2022-09-12T17:22:20.883Z,55.96
2022-09-12T17:27:22.496Z,57.15
2022-09-12T17:32:24.124Z,58.28
2022-09-12T17:37:25.778Z,60.46
2022-09-12T17:42:28.591Z,61.97
2022-09-12T17:47:30.225Z,64.44
2022-09-12T17:52:34.497Z,65.65
2022-09-12T17:57:37.100Z,67.47
2022-09-12T18:02:45.327Z,69.19
2022-09-12T18:07:46.972Z,70.56
2022-09-12T18:12:48.599Z,71.95
2022-09-12T18:17:50.267Z,73.59
2022-09-12T18:22:51.882Z,74.32
2022-09-12T18:27:53.568Z,75.26
2022-09-12T18:32:55.216Z,76.66
2022-09-12T18:38:02.033Z,77.06
2022-09-12T18:43:03.685Z,77.84
2022-09-12T18:48:06.485Z,78.58
2022-09-12T18:53:09.149Z,79.44
2022-09-12T18:58:10.804Z,80.30
2022-09-12T19:03:12.468Z,80.96
2022-09-12T19:08:14.086Z,82.12
2022-09-12T19:13:17.495Z,83.08
2022-09-12T19:18:20.182Z,83.42
2022-09-12T19:23:21.796Z,83.62
2022-09-12T19:28:24.449Z,83.20
2022-09-12T19:33:26.294Z,84.18
2022-09-12T19:38:28.266Z,85.00
2022-09-12T19:43:30.954Z,86.07
2022-09-12T19:48:32.620Z,86.67
2022-09-12T19:53:36.759Z,87.26
2022-09-12T19:58:45.480Z,87.52
2022-09-12T20:03:47.292Z,88.02
2022-09-12T20:08:49.028Z,87.78
2022-09-12T20:13:50.705Z,88.61
2022-09-12T20:18:54.102Z,88.42
2022-09-12T20:24:10.189Z,87.47
2022-09-12T20:29:16.389Z,87.92
2022-09-12T20:34:20.270Z,87.55
2022-09-12T20:39:22.427Z,87.78
2022-09-12T20:44:24.109Z,87.16
2022-09-12T20:49:26.246Z,87.84
2022-09-12T20:54:27.926Z,87.73
2022-09-12T20:59:29.681Z,87.90
2022-09-12T21:04:31.316Z,87.77
2022-09-12T21:09:33.922Z,88.19
2022-09-12T21:14:35.560Z,88.17
2022-09-12T21:19:37.222Z,88.65
2022-09-12T21:24:38.829Z,88.86
2022-09-12T21:29:41.017Z,90.26
2022-09-12T21:34:42.785Z,90.52
2022-09-12T21:39:45.165Z,90.48
2022-09-12T21:44:46.797Z,91.01
2022-09-12T21:49:48.427Z,91.05
2022-09-12T21:54:50.045Z,91.27
2022-09-12T21:59:51.690Z,91.14
2022-09-12T22:04:53.298Z,91.43
2022-09-12T22:09:55.215Z,91.17
2022-09-12T22:14:57.369Z,90.31
2022-09-12T22:19:59.169Z,90.45
2022-09-12T22:25:00.867Z,91.24
2022-09-12T22:30:02.507Z,91.73
2022-09-12T22:35:04.823Z,91.53
2022-09-12T22:40:06.777Z,91.45
2022-09-12T22:45:08.944Z,90.96
2022-09-12T22:50:10.565Z,90.66
2022-09-12T22:55:12.199Z,91.49
2022-09-12T23:00:14.829Z,91.09
2022-09-12T23:05:16.894Z,91.15
2022-09-12T23:10:18.521Z,91.31
2022-09-12T23:15:20.193Z,91.10
2022-09-12T23:20:21.805Z,91.52
2022-09-12T23:25:24.149Z,91.18
2022-09-12T23:30:25.841Z,91.65
2022-09-12T23:35:27.470Z,91.59
2022-09-12T23:40:29.093Z,92.40
2022-09-12T23:45:30.764Z,92.32
2022-09-12T23:50:32.440Z,93.45
2022-09-12T23:55:34.084Z,92.50
